This is the latest recevied weather packets stored in our database for station/object K4BHH. If no packets are shown the sender has not sent any weather packets the latest 10 day(s).
| Time | Temp. | Humidity | Pressure | Rain* | Wind** | Luminosity | Snow |
|---|---|---|---|---|---|---|---|
| 1777881923 | 7.22° C | 87% | 1016.6 hPa | 0 mm | - | - | - |
| 1777875249 | 9.44° C | 77% | 1017.3 hPa | 0 mm | - | - | - |
| 1777874048 | 8.89° C | 79% | 1017.6 hPa | 0 mm | - | - | - |
| 1777869809 | 8.89° C | 80% | 1017.9 hPa | 0 mm | - | - | - |
| 1777869209 | 8.89° C | 81% | 1017.9 hPa | 0 mm | - | - | - |
| 1777862981 | 10.56° C | 78% | 1018.3 hPa | 0 mm | - | - | - |
| 1777859250 | 11.67° C | 71% | 1017.6 hPa | 0 mm | - | - | - |
| 1777856815 | 13.89° C | 62% | 1017.3 hPa | 0 mm | - | - | - |
| 1777845840 | 20° C | 41% | 1017.9 hPa | 0 mm | - | - | - |
| 1777844006 | 20° C | 40% | 1018.3 hPa | 0 mm | - | - | - |
| 1777837366 | 18.33° C | 43% | 1020 hPa | 0 mm | - | - | - |
| 1777836765 | 18.33° C | 42% | 1020.3 hPa | 0 mm | - | - | - |
| 1777834962 | 18.33° C | 42% | 1020.7 hPa | 0 mm | - | - | - |
| 1777831294 | 17.22° C | 40% | 1021.3 hPa | 0 mm | - | - | - |
| 1777830693 | 17.22° C | 47% | 1021.3 hPa | 0 mm | - | - | - |
| 1777828890 | 17.22° C | 47% | 1022 hPa | 0 mm | - | - | - |
| 1777826362 | 16.11° C | 47% | 1022.4 hPa | 0 mm | - | - | - |
| 1777821554 | 14.44° C | 53% | 1022.7 hPa | 0 mm | - | - | - |
| 1777819751 | 13.89° C | 58% | 1022.7 hPa | 0 mm | - | - | - |
| 1777815514 | 11.11° C | 76% | 1022.7 hPa | 0 mm | - | - | - |
| 1777812509 | 10° C | 84% | 1022.4 hPa | 0 mm | - | - | - |
| 1777801567 | 5° C | 94% | 1021 hPa | 0 mm | - | - | - |
| 1777800966 | 5° C | 94% | 1021 hPa | 0 mm | - | - | - |
| 1777797330 | 6.11° C | 93% | 1020.7 hPa | 0 mm | - | - | - |
| 1777791226 | 6.67° C | 91% | 1020.3 hPa | 0 mm | - | - | - |
* Rain latest hour (hover to see other rain measurements)
** Current wind speed in m/s (hover to see current wind gust speed)